Time;durP1;ratioP1;P1;durP2;ratioP2;P2;SDS_P1;SDS_P2;PMS_P1;PMS_P2;Temp;Humidity;BMP_temperature;BMP_pressure;BME280_temperature;BME280_humidity;BME280_pressure;Samples;Min_cycle;Max_cycle;Signal;HPM_P1;HPM_P2
2021/08/05 00:00:34;;;;;;;3.40;3.10;;;19.40;99.30;;;;;;5091338;28;20027;-41
2021/08/05 00:03:02;;;;;;;3.28;2.92;;;19.40;99.30;;;;;;5081960;28;20411;-42
2021/08/05 00:05:35;;;;;;;3.53;3.22;;;19.40;99.30;;;;;;5090474;28;20339;-41
2021/08/05 00:08:06;;;;;;;3.80;3.38;;;19.40;99.40;;;;;;5080851;28;20419;-39
2021/08/05 00:10:41;;;;;;;3.53;3.22;;;19.40;99.50;;;;;;5089932;28;20377;-41
2021/08/05 00:13:08;;;;;;;3.60;3.30;;;19.40;99.50;;;;;;5080074;28;20024;-42
2021/08/05 00:15:36;;;;;;;4.18;3.78;;;19.40;99.60;;;;;;5089241;28;20424;-42
2021/08/05 00:18:04;;;;;;;3.70;3.40;;;19.40;99.60;;;;;;5091403;28;20356;-39
2021/08/05 00:20:32;;;;;;;3.78;3.38;;;19.40;99.60;;;;;;5090435;28;20541;-39
2021/08/05 00:23:03;;;;;;;3.35;2.90;;;19.40;99.60;;;;;;5090305;28;20422;-39
2021/08/05 00:25:32;;;;;;;4.75;3.38;;;19.40;99.70;;;;;;5090953;28;20438;-42
2021/08/05 00:27:59;;;;;;;3.03;2.83;;;19.40;99.70;;;;;;5091177;28;20100;-40
2021/08/05 00:30:30;;;;;;;3.50;3.20;;;19.40;99.70;;;;;;5089638;28;20449;-42
2021/08/05 00:33:03;;;;;;;4.03;3.50;;;19.40;99.70;;;;;;5090361;28;20031;-41
2021/08/05 00:35:39;;;;;;;3.42;3.05;;;19.40;99.80;;;;;;5089916;28;20434;-42
2021/08/05 00:38:08;;;;;;;4.40;3.35;;;19.40;99.80;;;;;;5089857;28;20443;-39
2021/08/05 00:40:35;;;;;;;3.70;3.40;;;19.40;99.90;;;;;;5088946;28;20459;-41
2021/08/05 00:43:02;;;;;;;3.60;3.30;;;19.30;99.90;;;;;;5090271;28;20119;-42
2021/08/05 00:45:29;;;;;;;3.92;3.63;;;19.30;99.90;;;;;;5069513;28;20491;-38
2021/08/05 00:47:54;;;;;;;3.70;3.40;;;19.30;99.90;;;;;;5084145;28;20528;-42
2021/08/05 00:50:28;;;;;;;3.80;3.50;;;19.30;99.90;;;;;;5089853;28;20472;-41
2021/08/05 00:52:54;;;;;;;3.30;3.00;;;19.20;99.90;;;;;;5090220;28;20066;-39
2021/08/05 00:55:22;;;;;;;3.80;3.50;;;19.20;99.90;;;;;;5090283;28;20020;-39
2021/08/05 00:57:49;;;;;;;4.05;3.40;;;19.20;99.90;;;;;;5089833;28;20107;-41
2021/08/05 01:00:17;;;;;;;3.20;2.90;;;19.10;99.90;;;;;;5088194;28;20054;-42
2021/08/05 01:02:53;;;;;;;3.95;3.55;;;19.10;99.90;;;;;;5089014;28;20032;-41
2021/08/05 01:05:28;;;;;;;4.10;3.70;;;19.00;99.90;;;;;;5089553;28;20057;-40
2021/08/05 01:08:16;;;;;;;4.22;3.85;;;19.00;99.90;;;;;;5090280;28;20058;-40
2021/08/05 01:10:51;;;;;;;6.30;4.22;;;19.00;99.90;;;;;;5089181;28;20780;-39
2021/08/05 01:13:45;;;;;;;4.53;4.13;;;19.00;99.90;;;;;;5089419;28;20439;-39
2021/08/05 01:16:20;;;;;;;4.18;3.78;;;19.00;99.90;;;;;;5081137;28;20434;-40
2021/08/05 01:18:50;;;;;;;4.30;3.97;;;19.00;99.90;;;;;;5088862;28;20031;-41
2021/08/05 01:21:30;;;;;;;5.05;4.60;;;18.90;99.90;;;;;;5089928;28;20079;-39
2021/08/05 01:24:06;;;;;;;6.43;5.43;;;18.80;99.90;;;;;;5090405;28;20385;-36
2021/08/05 01:26:48;;;;;;;5.57;4.53;;;18.70;99.90;;;;;;5088933;28;20484;-34
2021/08/05 01:29:25;;;;;;;5.22;4.72;;;18.70;99.90;;;;;;5090048;28;20020;-40
2021/08/05 01:31:57;;;;;;;5.18;4.68;;;18.70;99.90;;;;;;5089482;28;20039;-39
2021/08/05 01:34:26;;;;;;;5.00;4.60;;;18.60;99.90;;;;;;5088216;28;20052;-39
2021/08/05 01:36:54;;;;;;;5.50;5.00;;;18.50;99.90;;;;;;5090029;28;20456;-37
2021/08/05 01:39:27;;;;;;;5.50;5.00;;;18.50;99.90;;;;;;5087645;28;20055;-41
2021/08/05 01:41:55;;;;;;;6.72;5.57;;;18.40;99.90;;;;;;5089261;28;20023;-39
2021/08/05 01:44:28;;;;;;;8.52;5.65;;;18.50;99.90;;;;;;5089157;28;20047;-42
2021/08/05 01:46:57;;;;;;;6.03;5.53;;;18.40;99.90;;;;;;5089028;28;20541;-42
2021/08/05 01:49:32;;;;;;;8.75;6.28;;;18.40;99.90;;;;;;5088689;28;20132;-41
2021/08/05 01:52:01;;;;;;;6.90;6.30;;;18.40;99.90;;;;;;5089672;28;20376;-38
2021/08/05 01:54:29;;;;;;;5.70;5.20;;;18.40;99.90;;;;;;5088771;28;20096;-41
2021/08/05 01:56:57;;;;;;;6.13;5.53;;;18.40;99.90;;;;;;5089556;28;20036;-41
2021/08/05 01:59:41;;;;;;;8.65;6.50;;;18.40;99.90;;;;;;5089952;28;20177;-41
2021/08/05 02:02:09;;;;;;;6.60;6.00;;;18.30;99.90;;;;;;5089619;28;20404;-42
2021/08/05 02:05:07;;;;;;;7.00;6.40;;;18.40;99.90;;;;;;5087720;28;20027;-40
2021/08/05 02:07:48;;;;;;;6.70;6.13;;;18.30;99.90;;;;;;5086703;28;20406;-37
2021/08/05 02:10:30;;;;;;;7.88;6.10;;;18.40;99.90;;;;;;5089687;28;20379;-41
2021/08/05 02:13:05;;;;;;;7.47;6.88;;;18.30;99.90;;;;;;5089669;28;20434;-41
2021/08/05 02:15:36;;;;;;;6.75;6.13;;;18.30;99.90;;;;;;5087945;28;20444;-40
2021/08/05 02:18:05;;;;;;;6.90;6.30;;;18.30;99.90;;;;;;5089471;28;20780;-40
2021/08/05 02:20:33;;;;;;;7.15;6.45;;;18.30;99.90;;;;;;5088516;28;20387;-40
2021/08/05 02:23:02;;;;;;;6.93;6.22;;;18.40;99.90;;;;;;5089177;28;20016;-42
2021/08/05 02:25:39;;;;;;;6.60;6.00;;;18.30;99.90;;;;;;5089445;28;20020;-41
2021/08/05 02:28:09;;;;;;;6.65;6.05;;;18.30;99.90;;;;;;5089903;28;20039;-42
2021/08/05 02:31:29;;;;;;;6.60;5.97;;;18.30;99.90;;;;;;5088913;28;20015;-40
2021/08/05 02:33:57;;;;;;;7.13;6.38;;;18.30;99.90;;;;;;5090033;28;20542;-39
2021/08/05 02:36:25;;;;;;;7.07;6.43;;;18.30;99.90;;;;;;5088493;28;20027;-38
2021/08/05 02:38:55;;;;;;;7.63;6.90;;;18.30;99.90;;;;;;5089083;28;20036;-42
2021/08/05 02:41:31;;;;;;;7.10;6.50;;;18.30;99.90;;;;;;5088895;28;20433;-42
2021/08/05 02:44:00;;;;;;;7.20;6.60;;;18.30;99.90;;;;;;5088043;28;20032;-41
2021/08/05 02:46:28;;;;;;;7.55;6.85;;;18.30;99.90;;;;;;5087402;28;20012;-37
2021/08/05 02:48:54;;;;;;;7.80;7.10;;;18.30;99.90;;;;;;5089268;28;20111;-41
2021/08/05 02:51:42;;;;;;;7.05;6.45;;;18.30;99.90;;;;;;5091925;28;20036;-42
2021/08/05 02:54:11;;;;;;;6.90;6.22;;;18.30;99.90;;;;;;5092283;28;20028;-41
2021/08/05 02:56:40;;;;;;;7.57;6.82;;;18.40;99.90;;;;;;5091227;28;20016;-41
2021/08/05 02:59:07;;;;;;;7.72;6.97;;;18.30;99.90;;;;;;5092917;28;20032;-40
2021/08/05 03:01:34;;;;;;;6.95;6.25;;;18.30;99.90;;;;;;5091562;28;20230;-40
2021/08/05 03:04:00;;;;;;;6.35;5.78;;;18.30;99.90;;;;;;5091811;28;20414;-39
2021/08/05 03:06:27;;;;;;;7.07;6.38;;;18.30;99.90;;;;;;5091886;28;20359;-43
2021/08/05 03:09:01;;;;;;;7.90;6.55;;;18.30;99.90;;;;;;5090829;28;20109;-37
2021/08/05 03:11:38;;;;;;;7.13;6.53;;;18.30;99.90;;;;;;5091223;28;20063;-40
2021/08/05 03:14:07;;;;;;;6.60;6.00;;;18.30;99.90;;;;;;5093214;28;20265;-39
2021/08/05 03:16:33;;;;;;;6.38;5.85;;;18.30;99.90;;;;;;5090142;28;20450;-40
2021/08/05 03:19:00;;;;;;;7.18;6.47;;;18.30;99.90;;;;;;5091441;28;20032;-41
2021/08/05 03:21:27;;;;;;;7.30;6.65;;;18.30;99.90;;;;;;5091348;28;20028;-39
2021/08/05 03:23:54;;;;;;;6.32;5.72;;;18.30;99.90;;;;;;5090624;28;20045;-42
2021/08/05 03:26:31;;;;;;;6.75;6.15;;;18.30;99.90;;;;;;5091976;28;20020;-42
2021/08/05 03:28:57;;;;;;;6.20;5.60;;;18.30;99.90;;;;;;5091428;28;20020;-40
2021/08/05 03:31:28;;;;;;;6.18;5.68;;;18.30;99.90;;;;;;5091716;28;20024;-39
2021/08/05 03:33:56;;;;;;;6.22;5.18;;;18.30;99.90;;;;;;5091701;28;20076;-38
2021/08/05 03:36:28;;;;;;;5.78;5.18;;;18.30;99.90;;;;;;5091408;28;20020;-38
2021/08/05 03:38:56;;;;;;;5.32;4.82;;;18.30;99.90;;;;;;5090817;28;20276;-39
2021/08/05 03:41:34;;;;;;;6.88;5.20;;;18.20;99.90;;;;;;5072833;28;20357;-42
2021/08/05 03:44:01;;;;;;;5.90;5.32;;;18.20;99.90;;;;;;5091117;28;20394;-40
2021/08/05 03:46:27;;;;;;;5.60;5.15;;;18.20;99.90;;;;;;5089748;28;20353;-41
2021/08/05 03:48:53;;;;;;;5.60;5.15;;;18.20;99.90;;;;;;5090963;28;20023;-40
2021/08/05 03:51:26;;;;;;;5.45;4.90;;;18.20;99.90;;;;;;5092378;28;20048;-40
2021/08/05 03:53:58;;;;;;;5.75;5.25;;;18.20;99.90;;;;;;5090552;28;20027;-40
2021/08/05 03:56:33;;;;;;;5.75;5.15;;;18.20;99.90;;;;;;5091721;28;20035;-40
2021/08/05 03:58:59;;;;;;;4.88;4.38;;;18.20;99.90;;;;;;5091370;28;20422;-42
2021/08/05 04:01:24;;;;;;;5.47;4.95;;;18.20;99.90;;;;;;5090405;28;20039;-41
2021/08/05 04:04:00;;;;;;;5.18;4.78;;;18.20;99.90;;;;;;5091682;28;20177;-42
2021/08/05 04:06:28;;;;;;;5.13;4.70;;;18.20;99.90;;;;;;5090092;28;20051;-41
2021/08/05 04:08:55;;;;;;;5.50;5.00;;;18.20;99.90;;;;;;5090856;28;20047;-39
2021/08/05 04:11:36;;;;;;;5.57;5.07;;;18.20;99.90;;;;;;5090841;28;20589;-38
2021/08/05 04:14:06;;;;;;;5.35;4.85;;;18.20;99.90;;;;;;5090245;28;20479;-38
2021/08/05 04:16:33;;;;;;;5.35;4.85;;;18.20;99.90;;;;;;5090788;28;20028;-41
2021/08/05 04:19:01;;;;;;;5.18;4.68;;;18.20;99.90;;;;;;5091105;28;20180;-39
2021/08/05 04:21:28;;;;;;;5.22;4.82;;;18.20;99.90;;;;;;5090365;28;20017;-41
2021/08/05 04:23:56;;;;;;;5.45;4.82;;;18.20;99.90;;;;;;5091451;28;20020;-39
2021/08/05 04:26:27;;;;;;;6.07;5.00;;;18.20;99.90;;;;;;5091235;28;20490;-38
2021/08/05 04:28:56;;;;;;;4.95;4.55;;;18.20;99.90;;;;;;5090996;28;20081;-42
2021/08/05 04:31:32;;;;;;;6.53;5.03;;;18.20;99.90;;;;;;5091118;28;20030;-40
2021/08/05 04:33:58;;;;;;;5.32;4.82;;;18.20;99.90;;;;;;5091400;28;20052;-39
2021/08/05 04:36:39;;;;;;;5.18;4.68;;;18.20;99.90;;;;;;5091068;28;20352;-41
2021/08/05 04:39:07;;;;;;;4.80;4.28;;;18.20;99.90;;;;;;5090529;28;20043;-42
2021/08/05 04:41:36;;;;;;;5.32;4.30;;;18.20;99.90;;;;;;5089778;28;20020;-38
2021/08/05 04:44:05;;;;;;;5.47;4.97;;;18.30;99.90;;;;;;5091230;28;20386;-42
2021/08/05 04:46:31;;;;;;;5.90;4.93;;;18.30;99.90;;;;;;5089895;28;20008;-42
2021/08/05 04:49:03;;;;;;;5.40;4.90;;;18.20;99.90;;;;;;5091677;28;20031;-39
2021/08/05 04:51:33;;;;;;;5.30;4.85;;;18.30;99.90;;;;;;5088925;28;20556;-39
2021/08/05 04:54:03;;;;;;;5.25;4.85;;;18.30;99.90;;;;;;5090720;28;20482;-38
2021/08/05 04:56:37;;;;;;;5.35;4.90;;;18.30;99.90;;;;;;5089720;28;20265;-41
2021/08/05 04:59:16;;;;;;;5.28;4.78;;;18.30;99.90;;;;;;5071107;28;20423;-40
2021/08/05 05:01:47;;;;;;;7.45;5.38;;;18.30;99.90;;;;;;5086592;28;20419;-40
2021/08/05 05:04:17;;;;;;;4.90;4.50;;;18.40;99.90;;;;;;5090792;28;20024;-41
2021/08/05 05:06:48;;;;;;;4.93;4.53;;;18.40;99.90;;;;;;5088226;28;20501;-42
2021/08/05 05:09:17;;;;;;;6.35;4.63;;;18.40;99.90;;;;;;5084033;28;20553;-41
2021/08/05 05:11:49;;;;;;;5.03;4.63;;;18.40;99.90;;;;;;5088916;28;20318;-42
2021/08/05 05:14:19;;;;;;;5.82;5.22;;;18.40;99.90;;;;;;5090089;28;20364;-39
2021/08/05 05:16:54;;;;;;;5.35;4.85;;;18.40;99.90;;;;;;5088169;28;20138;-43
2021/08/05 05:19:33;;;;;;;6.18;5.57;;;18.50;99.90;;;;;;5090293;28;20391;-42
2021/08/05 05:22:02;;;;;;;5.63;5.13;;;18.50;99.90;;;;;;5090576;28;20107;-38
2021/08/05 05:24:29;;;;;;;6.57;5.05;;;18.50;99.90;;;;;;5089176;28;20673;-41
2021/08/05 05:26:56;;;;;;;5.43;4.93;;;18.50;99.90;;;;;;5089796;28;20080;-41
2021/08/05 05:29:29;;;;;;;8.52;4.82;;;18.50;99.90;;;;;;5090375;28;20387;-40
2021/08/05 05:31:55;;;;;;;5.60;5.05;;;18.50;99.90;;;;;;5088509;28;20495;-40
2021/08/05 05:34:21;;;;;;;5.05;4.55;;;18.50;99.90;;;;;;5089651;28;20024;-41
2021/08/05 05:36:47;;;;;;;5.20;4.70;;;18.50;99.90;;;;;;5089286;28;20485;-40
2021/08/05 05:39:13;;;;;;;6.10;5.50;;;18.50;99.90;;;;;;5089257;28;20028;-41
2021/08/05 05:41:38;;;;;;;5.47;4.97;;;18.50;99.90;;;;;;5088762;28;20119;-40
2021/08/05 05:45:01;;;;;;;6.45;5.82;;;18.50;99.90;;;;;;5092648;28;20024;-42
2021/08/05 05:47:26;;;;;;;7.93;7.18;;;18.50;99.90;;;;;;5086025;28;20460;-40
2021/08/05 05:49:54;;;;;;;8.93;7.18;;;18.60;99.90;;;;;;5087710;28;20032;-39
2021/08/05 05:52:20;;;;;;;7.95;7.05;;;18.50;99.90;;;;;;5073923;28;20464;-36
2021/08/05 05:54:46;;;;;;;8.52;6.70;;;18.60;99.90;;;;;;5087655;28;20038;-41
2021/08/05 05:57:12;;;;;;;8.45;6.60;;;18.60;99.90;;;;;;5088490;28;20099;-41
2021/08/05 05:59:39;;;;;;;7.20;6.50;;;18.60;99.90;;;;;;5086762;28;20036;-40
2021/08/05 06:02:06;;;;;;;7.00;6.30;;;18.60;99.90;;;;;;5088286;28;20016;-42
2021/08/05 06:04:31;;;;;;;8.75;6.13;;;18.70;99.90;;;;;;5087761;28;20020;-41
2021/08/05 06:06:57;;;;;;;7.22;6.53;;;18.70;99.90;;;;;;5087376;28;20090;-39
2021/08/05 06:09:22;;;;;;;7.13;6.43;;;18.70;99.90;;;;;;5087309;28;20519;-40
2021/08/05 06:11:48;;;;;;;7.07;6.30;;;18.80;99.90;;;;;;5088273;28;20547;-38
2021/08/05 06:14:14;;;;;;;7.68;6.30;;;18.90;99.90;;;;;;5087670;28;20479;-40
2021/08/05 06:16:41;;;;;;;7.65;6.70;;;18.90;99.90;;;;;;5088315;28;20116;-42
2021/08/05 06:19:06;;;;;;;6.85;6.15;;;18.90;99.90;;;;;;5087548;28;20032;-41
2021/08/05 06:21:32;;;;;;;7.43;6.72;;;19.00;99.90;;;;;;5087461;28;20016;-41
2021/08/05 06:23:57;;;;;;;8.52;7.05;;;19.00;99.90;;;;;;5088526;28;20035;-39
2021/08/05 06:26:26;;;;;;;7.55;6.78;;;19.00;99.90;;;;;;5092944;28;20024;-36
2021/08/05 06:28:52;;;;;;;7.68;6.65;;;19.00;99.90;;;;;;5092867;28;20107;-41
2021/08/05 06:31:18;;;;;;;7.63;6.85;;;19.00;99.90;;;;;;5093119;28;20016;-39
2021/08/05 06:33:47;;;;;;;7.22;6.53;;;19.00;99.90;;;;;;5092261;28;20028;-39
2021/08/05 06:36:13;;;;;;;8.25;7.50;;;19.10;99.90;;;;;;5092766;28;20078;-40
2021/08/05 06:38:39;;;;;;;7.38;6.57;;;19.10;99.90;;;;;;5091956;28;20032;-39
2021/08/05 06:41:05;;;;;;;8.13;7.32;;;19.10;99.90;;;;;;5093644;28;20016;-42
2021/08/05 06:43:31;;;;;;;8.23;7.43;;;19.10;99.90;;;;;;5091836;28;20364;-38
2021/08/05 06:45:56;;;;;;;8.50;7.70;;;19.10;99.90;;;;;;5092772;28;20540;-40
2021/08/05 06:48:22;;;;;;;9.10;7.60;;;19.20;99.90;;;;;;5092470;28;20495;-40
2021/08/05 06:50:50;;;;;;;8.57;7.80;;;19.20;99.90;;;;;;5092801;28;20023;-42
2021/08/05 06:53:16;;;;;;;7.65;7.00;;;19.30;99.90;;;;;;5093522;28;20035;-38
2021/08/05 06:55:42;;;;;;;8.23;7.43;;;19.30;99.90;;;;;;5091027;28;20400;-36
2021/08/05 06:58:07;;;;;;;7.85;7.20;;;19.30;99.90;;;;;;5092439;28;20028;-41
2021/08/05 07:00:33;;;;;;;8.70;7.90;;;19.40;99.90;;;;;;5092277;28;20031;-39
2021/08/05 07:02:58;;;;;;;8.98;8.10;;;19.40;99.90;;;;;;5091854;28;20031;-39
2021/08/05 07:05:25;;;;;;;8.88;8.07;;;19.50;99.90;;;;;;5092440;28;20185;-40
2021/08/05 07:07:54;;;;;;;8.18;7.40;;;19.50;99.90;;;;;;5092291;28;20020;-41
2021/08/05 07:10:19;;;;;;;8.65;7.50;;;19.50;99.90;;;;;;5090534;28;20054;-42
2021/08/05 07:12:48;;;;;;;8.35;7.43;;;19.60;99.90;;;;;;5092675;28;20024;-42
2021/08/05 07:15:14;;;;;;;7.25;6.55;;;19.60;99.90;;;;;;5091972;28;20016;-42
2021/08/05 07:17:47;;;;;;;8.30;7.50;;;19.70;99.90;;;;;;5091696;28;20019;-41
2021/08/05 07:20:18;;;;;;;8.18;7.47;;;19.70;99.90;;;;;;5091603;28;20067;-42
2021/08/05 07:22:50;;;;;;;8.60;7.80;;;19.70;99.90;;;;;;5091860;28;20017;-41
2021/08/05 07:25:18;;;;;;;8.52;7.72;;;19.70;99.90;;;;;;5091667;28;20031;-36
2021/08/05 07:27:49;;;;;;;8.38;7.68;;;19.70;99.90;;;;;;5091542;28;20020;-43
2021/08/05 07:30:16;;;;;;;8.45;7.65;;;19.70;99.90;;;;;;5091656;28;20533;-39
2021/08/05 07:32:42;;;;;;;8.05;7.35;;;19.70;99.90;;;;;;5090220;28;20459;-42
2021/08/05 07:35:09;;;;;;;8.68;7.63;;;19.80;99.90;;;;;;5092144;28;20023;-38
2021/08/05 07:37:35;;;;;;;8.70;7.90;;;19.80;99.90;;;;;;5090429;28;20414;-40
2021/08/05 07:40:03;;;;;;;8.82;7.93;;;19.90;99.90;;;;;;5090114;28;20028;-40
2021/08/05 07:42:28;;;;;;;11.70;10.43;;;19.90;99.90;;;;;;5090583;28;20032;-42
2021/08/05 07:44:57;;;;;;;11.88;10.73;;;20.00;99.90;;;;;;5090189;28;20035;-40
2021/08/05 07:47:24;;;;;;;10.77;9.77;;;20.00;99.90;;;;;;5091390;28;20474;-35
2021/08/05 07:49:50;;;;;;;10.02;9.05;;;20.00;99.90;;;;;;5091524;28;20016;-41
2021/08/05 07:52:16;;;;;;;9.50;8.60;;;20.10;99.90;;;;;;5091395;28;20123;-41
2021/08/05 07:54:41;;;;;;;9.70;8.88;;;20.20;99.90;;;;;;5090207;28;20173;-41
2021/08/05 07:57:09;;;;;;;9.73;8.93;;;20.30;99.90;;;;;;5090526;28;20032;-42
2021/08/05 07:59:35;;;;;;;11.13;9.90;;;20.40;99.90;;;;;;5089910;28;20030;-42
2021/08/05 08:02:00;;;;;;;10.60;9.60;;;20.40;99.90;;;;;;5082039;28;20472;-40
2021/08/05 08:04:45;;;;;;;10.02;9.10;;;20.40;99.90;;;;;;5091341;28;20024;-37
2021/08/05 08:07:12;;;;;;;9.60;8.70;;;20.50;99.90;;;;;;5090146;28;20047;-38
2021/08/05 08:09:39;;;;;;;12.30;10.82;;;20.50;99.90;;;;;;5088159;28;20040;-42
2021/08/05 08:12:04;;;;;;;12.10;10.82;;;20.50;99.90;;;;;;5090798;28;20039;-42
2021/08/05 08:14:30;;;;;;;13.07;11.77;;;20.60;99.90;;;;;;5090019;28;20471;-39
2021/08/05 08:16:55;;;;;;;12.20;11.10;;;20.60;99.90;;;;;;5090627;28;20019;-37
2021/08/05 08:19:28;;;;;;;12.05;10.85;;;20.70;99.90;;;;;;5089595;28;20405;-41
2021/08/05 08:22:02;;;;;;;12.35;11.07;;;20.60;99.90;;;;;;5087018;28;20425;-42
2021/08/05 08:24:28;;;;;;;10.70;9.68;;;20.70;99.90;;;;;;5089260;28;20092;-41
2021/08/05 08:26:54;;;;;;;10.52;9.52;;;20.70;99.90;;;;;;5090712;28;20476;-40
2021/08/05 08:29:19;;;;;;;10.50;9.35;;;20.70;99.90;;;;;;5090781;28;20032;-40
2021/08/05 08:31:48;;;;;;;11.63;10.52;;;20.70;99.90;;;;;;5090192;28;20020;-40
2021/08/05 08:34:14;;;;;;;10.95;9.95;;;20.70;99.90;;;;;;5089575;28;20095;-40
2021/08/05 08:36:45;;;;;;;13.13;11.73;;;20.80;99.90;;;;;;5090653;28;20127;-42
2021/08/05 08:39:12;;;;;;;12.90;11.60;;;20.90;99.90;;;;;;5089564;28;20036;-42
2021/08/05 08:41:42;;;;;;;12.68;11.43;;;21.00;99.90;;;;;;5089434;28;20016;-42
2021/08/05 08:44:13;;;;;;;14.07;12.68;;;21.00;99.80;;;;;;5089504;28;20036;-36
2021/08/05 08:46:44;;;;;;;12.40;11.10;;;21.10;99.70;;;;;;5089399;28;20024;-36
2021/08/05 08:49:20;;;;;;;12.05;10.80;;;21.10;99.60;;;;;;5088892;28;20028;-41
2021/08/05 08:51:52;;;;;;;13.63;11.10;;;21.20;99.80;;;;;;5090390;28;20375;-41
2021/08/05 08:54:18;;;;;;;14.48;12.13;;;21.40;99.40;;;;;;5090519;28;20111;-38
2021/08/05 08:56:44;;;;;;;13.25;11.95;;;21.50;99.20;;;;;;5089594;28;20024;-42
2021/08/05 08:59:11;;;;;;;9.73;8.73;;;21.50;99.00;;;;;;5089493;28;20032;-41
2021/08/05 09:01:40;;;;;;;12.52;11.27;;;21.60;99.00;;;;;;5089782;28;20421;-41
2021/08/05 09:04:09;;;;;;;12.50;10.85;;;21.70;98.90;;;;;;5089293;28;20437;-39
2021/08/05 09:06:35;;;;;;;12.75;10.60;;;21.80;98.70;;;;;;5090253;28;20380;-39
2021/08/05 09:09:04;;;;;;;10.23;9.27;;;21.90;98.60;;;;;;5089645;28;20165;-42
2021/08/05 09:11:30;;;;;;;9.82;8.73;;;22.10;98.50;;;;;;5088247;28;20099;-40
2021/08/05 09:13:55;;;;;;;9.57;8.68;;;22.20;98.40;;;;;;5089957;28;20111;-39
2021/08/05 09:16:29;;;;;;;9.05;8.25;;;22.30;98.30;;;;;;5088881;28;20424;-39
2021/08/05 09:19:07;;;;;;;12.45;11.10;;;22.40;98.20;;;;;;5089811;28;20043;-42
2021/08/05 09:21:33;;;;;;;12.27;10.73;;;22.50;98.10;;;;;;5079369;28;20066;-36
2021/08/05 09:24:06;;;;;;;13.10;11.88;;;22.40;98.10;;;;;;5089205;28;20017;-44
2021/08/05 09:26:42;;;;;;;10.38;9.43;;;22.40;97.80;;;;;;5077356;28;20534;-42
2021/08/05 09:29:12;;;;;;;12.93;11.63;;;22.40;98.00;;;;;;5089106;28;20039;-42
2021/08/05 09:32:01;;;;;;;12.75;11.65;;;22.40;98.00;;;;;;5088685;28;20048;-42
2021/08/05 09:34:36;;;;;;;8.25;7.53;;;22.30;98.00;;;;;;5088549;28;20726;-42
2021/08/05 09:37:15;;;;;;;13.35;12.10;;;22.20;98.10;;;;;;5079220;28;20131;-43
2021/08/05 09:39:45;;;;;;;11.52;10.52;;;22.10;98.00;;;;;;5089056;28;20418;-42
2021/08/05 09:42:13;;;;;;;10.45;9.55;;;22.10;98.00;;;;;;5088804;28;20103;-41
2021/08/05 09:44:38;;;;;;;12.82;11.63;;;22.00;97.90;;;;;;5088436;28;20032;-41
2021/08/05 09:47:07;;;;;;;11.38;10.38;;;22.00;97.80;;;;;;5089538;28;20627;-43
2021/08/05 09:49:34;;;;;;;11.57;10.57;;;22.00;97.70;;;;;;5088380;28;20055;-42
2021/08/05 09:52:01;;;;;;;12.23;11.07;;;21.90;97.40;;;;;;5089003;28;20020;-41
2021/08/05 09:54:51;;;;;;;11.18;10.18;;;22.00;97.60;;;;;;5089080;28;20386;-43
2021/08/05 09:57:37;;;;;;;10.88;9.82;;;22.00;97.50;;;;;;5086981;28;20082;-43
2021/08/05 10:00:09;;;;;;;10.77;9.73;;;21.90;97.60;;;;;;5088106;28;20024;-40
2021/08/05 10:02:43;;;;;;;11.95;10.75;;;21.90;97.70;;;;;;5088377;28;20016;-40
2021/08/05 10:05:16;;;;;;;12.40;10.68;;;21.90;97.60;;;;;;5089379;28;20024;-43
2021/08/05 10:07:47;;;;;;;9.68;8.75;;;21.90;97.50;;;;;;5087804;28;20336;-42
2021/08/05 10:10:27;;;;;;;9.27;8.48;;;22.00;97.40;;;;;;5088335;28;20051;-42
2021/08/05 10:13:01;;;;;;;9.30;8.48;;;22.00;97.50;;;;;;5088346;28;20034;-41
2021/08/05 10:15:29;;;;;;;9.38;8.48;;;22.10;97.50;;;;;;5088662;28;20020;-41
2021/08/05 10:17:59;;;;;;;10.82;9.82;;;22.20;97.50;;;;;;5088581;28;20057;-41
2021/08/05 10:20:27;;;;;;;11.57;10.52;;;22.20;97.40;;;;;;5087609;28;20387;-42
2021/08/05 10:22:56;;;;;;;12.20;11.02;;;22.20;97.30;;;;;;5087195;28;20020;-41
2021/08/05 10:25:25;;;;;;;7.82;7.13;;;22.20;97.20;;;;;;5088350;28;20402;-42
2021/08/05 10:27:53;;;;;;;9.98;8.95;;;22.10;97.20;;;;;;5087352;28;20166;-42
2021/08/05 10:30:20;;;;;;;11.52;10.50;;;22.20;97.30;;;;;;5088723;28;20028;-43
2021/08/05 10:32:47;;;;;;;10.85;9.85;;;22.30;97.30;;;;;;5088493;28;20103;-41
2021/08/05 10:35:13;;;;;;;11.38;10.38;;;22.40;97.20;;;;;;5088109;28;20770;-40
2021/08/05 10:37:39;;;;;;;11.90;10.70;;;22.30;97.10;;;;;;5087625;28;20591;-42
2021/08/05 10:40:06;;;;;;;11.85;10.75;;;22.40;97.10;;;;;;5088798;28;20523;-37
2021/08/05 10:42:33;;;;;;;11.88;10.77;;;22.30;97.10;;;;;;5087283;28;20043;-41
2021/08/05 10:44:59;;;;;;;10.68;9.75;;;22.30;97.10;;;;;;5089050;28;20027;-42
2021/08/05 10:47:27;;;;;;;11.70;10.70;;;22.30;97.10;;;;;;5087079;28;20101;-41
2021/08/05 10:50:00;;;;;;;10.90;9.80;;;22.30;97.10;;;;;;5088060;28;20457;-41
2021/08/05 10:52:34;;;;;;;;;;;22.30;96.90;;;;;;5087908;28;20024;-45
2021/08/05 10:55:02;;;;;;;12.88;11.68;;;22.30;96.60;;;;;;5088633;28;19943;-42
2021/08/05 10:57:28;;;;;;;12.13;11.02;;;22.40;96.40;;;;;;5088713;28;20016;-40
2021/08/05 11:00:09;;;;;;;11.07;10.00;;;22.40;96.30;;;;;;5088724;28;20039;-40
2021/08/05 11:02:54;;;;;;;11.25;10.18;;;22.50;96.40;;;;;;5087343;28;20031;-40
2021/08/05 11:05:23;;;;;;;12.77;11.68;;;22.50;96.30;;;;;;5088568;28;20032;-42
2021/08/05 11:07:53;;;;;;;13.93;12.63;;;22.70;96.10;;;;;;5088792;28;20024;-43
2021/08/05 11:10:24;;;;;;;11.45;10.45;;;22.80;95.80;;;;;;5087323;28;20052;-39
2021/08/05 11:13:08;;;;;;;8.48;7.68;;;22.90;95.70;;;;;;5090948;28;20101;-40
2021/08/05 11:15:33;;;;;;;8.20;7.50;;;23.10;95.80;;;;;;5091311;28;20090;-44
2021/08/05 11:18:13;;;;;;;7.20;6.60;;;23.20;95.70;;;;;;5091888;28;20052;-38
2021/08/05 11:20:51;;;;;;;10.20;9.23;;;23.30;95.20;;;;;;5091682;28;20031;-39
2021/08/05 11:23:25;;;;;;;8.00;7.30;;;23.50;94.80;;;;;;5090665;28;20055;-40
2021/08/05 11:25:51;;;;;;;9.05;8.25;;;23.70;94.60;;;;;;5092579;28;20053;-41
2021/08/05 11:28:25;;;;;;;8.80;8.02;;;23.80;94.30;;;;;;5091492;28;20520;-40
2021/08/05 11:31:02;;;;;;;11.43;10.43;;;23.90;93.80;;;;;;5091352;28;20039;-42
2021/08/05 11:33:36;;;;;;;9.75;8.90;;;24.00;93.30;;;;;;5090576;28;20027;-42
2021/08/05 11:39:15;;;;;;;8.25;7.63;;;24.20;93.00;;;;;;5087426;28;20047;-39
2021/08/05 11:41:49;;;;;;;9.00;8.25;;;24.30;92.90;;;;;;5091558;28;20487;-41
2021/08/05 11:44:28;;;;;;;6.80;6.20;;;24.40;92.40;;;;;;5080839;28;20055;-40
2021/08/05 11:47:06;;;;;;;8.10;7.50;;;24.50;92.50;;;;;;5092125;28;20477;-42
2021/08/05 11:49:40;;;;;;;9.10;8.30;;;24.50;92.20;;;;;;5091187;28;20028;-40
2021/08/05 11:52:10;;;;;;;7.25;6.60;;;24.50;92.00;;;;;;5091377;28;20016;-40
2021/08/05 11:54:36;;;;;;;8.98;8.27;;;24.50;92.30;;;;;;5090436;28;20081;-42
2021/08/05 11:57:07;;;;;;;8.57;7.78;;;24.50;92.40;;;;;;5091989;28;20024;-40
2021/08/05 11:59:41;;;;;;;7.43;6.82;;;24.50;92.50;;;;;;5090260;28;20039;-38
2021/08/05 12:02:12;;;;;;;7.82;7.10;;;24.50;92.60;;;;;;5091642;28;20028;-39
2021/08/05 12:04:38;;;;;;;9.98;9.07;;;24.50;92.50;;;;;;5090858;28;20028;-42
2021/08/05 12:07:22;;;;;;;8.80;8.00;;;24.40;92.50;;;;;;5090774;28;20418;-42
2021/08/05 12:09:52;;;;;;;8.60;7.80;;;24.40;92.50;;;;;;5091837;28;20040;-39
2021/08/05 12:12:19;;;;;;;6.95;6.25;;;24.60;92.40;;;;;;5090706;28;20468;-43
2021/08/05 12:14:49;;;;;;;6.80;6.18;;;24.70;92.40;;;;;;5090325;28;20016;-42
2021/08/05 12:17:15;;;;;;;6.97;6.47;;;24.80;92.50;;;;;;5079909;28;20051;-39
2021/08/05 12:19:50;;;;;;;9.07;8.27;;;24.90;92.30;;;;;;5090150;28;20079;-43
2021/08/05 12:22:16;;;;;;;8.68;7.88;;;25.00;91.90;;;;;;5090626;28;20032;-43
2021/08/05 12:24:50;;;;;;;9.02;8.25;;;25.00;91.70;;;;;;5090488;28;20028;-42
2021/08/05 12:27:19;;;;;;;9.38;8.30;;;24.90;91.50;;;;;;5087641;28;20536;-42
2021/08/05 12:30:06;;;;;;;8.48;7.68;;;24.80;91.20;;;;;;5091147;28;20028;-43
2021/08/05 12:32:32;;;;;;;8.27;7.47;;;24.70;91.50;;;;;;5088869;28;20020;-42
2021/08/05 12:34:58;;;;;;;7.60;6.90;;;24.70;91.70;;;;;;5090577;28;20486;-40
2021/08/05 12:37:24;;;;;;;6.13;5.53;;;24.70;92.00;;;;;;5089792;28;20785;-41
2021/08/05 12:40:12;;;;;;;5.88;5.40;;;24.70;92.10;;;;;;5090427;28;20093;-41
2021/08/05 12:42:38;;;;;;;8.73;7.70;;;24.70;92.20;;;;;;5090177;28;20020;-43
2021/08/05 12:45:04;;;;;;;8.90;6.95;;;24.70;92.00;;;;;;5090789;28;20024;-44
2021/08/05 12:47:30;;;;;;;7.60;6.90;;;24.80;92.10;;;;;;5089094;28;20031;-43
2021/08/05 12:49:55;;;;;;;10.00;9.20;;;24.80;92.30;;;;;;5090447;28;20078;-44
2021/08/05 12:52:22;;;;;;;7.53;6.93;;;24.80;91.60;;;;;;5089152;28;20082;-43
2021/08/05 12:54:57;;;;;;;12.02;10.82;;;24.70;91.90;;;;;;5089932;28;20020;-40
2021/08/05 12:57:23;;;;;;;11.30;10.02;;;24.60;92.30;;;;;;5087772;28;20031;-39
2021/08/05 12:59:51;;;;;;;13.23;11.93;;;24.40;92.70;;;;;;5089282;28;20081;-43
2021/08/05 13:02:17;;;;;;;14.32;13.05;;;24.30;93.30;;;;;;5088193;28;20434;-43